createdAt,value
2022-07-26T00:01:21.896Z,67.02
2022-07-26T00:03:48.294Z,65.40
2022-07-26T00:06:14.593Z,66.50
2022-07-26T00:08:40.908Z,65.71
2022-07-26T00:11:07.512Z,65.51
2022-07-26T00:13:33.951Z,66.56
2022-07-26T00:16:00.270Z,66.45
2022-07-26T00:18:26.589Z,65.12
2022-07-26T00:20:52.890Z,66.29
2022-07-26T00:23:21.814Z,66.45
2022-07-26T00:25:48.120Z,65.93
2022-07-26T00:28:14.428Z,65.58
2022-07-26T00:30:40.731Z,66.04
2022-07-26T00:33:07.043Z,65.98
2022-07-26T00:35:34.719Z,65.02
2022-07-26T00:38:01.021Z,65.15
2022-07-26T00:40:27.350Z,65.31
2022-07-26T00:42:53.659Z,64.62
2022-07-26T00:45:19.954Z,63.77
2022-07-26T00:47:46.243Z,63.88
2022-07-26T00:50:12.651Z,63.51
2022-07-26T00:52:38.951Z,64.10
2022-07-26T00:55:06.472Z,63.76
2022-07-26T00:57:32.781Z,65.12
2022-07-26T01:00:01.134Z,63.81
2022-07-26T01:02:27.511Z,62.82
2022-07-26T01:04:53.857Z,62.50
2022-07-26T01:07:20.152Z,62.70
2022-07-26T01:09:46.471Z,64.32
2022-07-26T01:12:12.811Z,63.69
2022-07-26T01:14:39.143Z,63.19
2022-07-26T01:17:05.459Z,61.89
2022-07-26T01:19:31.922Z,62.78
2022-07-26T01:21:58.261Z,62.52
2022-07-26T01:24:24.564Z,63.46
2022-07-26T01:26:50.872Z,64.60
2022-07-26T01:29:17.164Z,64.39
2022-07-26T01:31:43.590Z,65.00
2022-07-26T01:34:10.251Z,65.01
2022-07-26T01:36:36.713Z,65.89
2022-07-26T01:39:06.068Z,66.03
2022-07-26T01:41:37.925Z,66.47
2022-07-26T01:44:05.158Z,69.15
2022-07-26T01:46:31.638Z,70.13
2022-07-26T01:48:57.950Z,70.41
2022-07-26T01:51:24.312Z,70.73
2022-07-26T01:53:50.599Z,69.67
2022-07-26T01:56:16.900Z,69.24
2022-07-26T01:58:43.200Z,70.25
2022-07-26T02:01:09.526Z,69.10
2022-07-26T02:03:35.852Z,68.85
2022-07-26T02:06:02.177Z,69.15
2022-07-26T02:08:28.469Z,68.88
2022-07-26T02:11:03.263Z,68.51
2022-07-26T02:13:30.248Z,67.47
2022-07-26T02:15:58.798Z,65.76
2022-07-26T02:18:25.371Z,66.61
2022-07-26T02:20:51.680Z,66.42
2022-07-26T02:23:17.990Z,66.65
2022-07-26T02:25:44.290Z,66.95
2022-07-26T02:28:10.642Z,66.70
2022-07-26T02:30:36.953Z,66.61
2022-07-26T02:33:05.721Z,67.71
2022-07-26T02:35:32.049Z,68.09
2022-07-26T02:37:58.349Z,67.33
2022-07-26T02:40:24.639Z,66.93
2022-07-26T02:42:50.941Z,66.85
2022-07-26T02:45:17.237Z,66.93
2022-07-26T02:47:43.579Z,67.06
2022-07-26T02:50:09.912Z,66.91
2022-07-26T02:52:36.202Z,66.23
2022-07-26T02:55:02.512Z,66.20
2022-07-26T02:57:28.828Z,66.69
2022-07-26T03:00:11.853Z,65.56
2022-07-26T03:02:38.309Z,65.38
2022-07-26T03:05:04.608Z,64.89
2022-07-26T03:07:31.029Z,64.76
2022-07-26T03:09:57.357Z,64.79
2022-07-26T03:12:23.651Z,64.74
2022-07-26T03:14:49.956Z,65.80
2022-07-26T03:17:16.253Z,66.27
2022-07-26T03:19:42.547Z,65.73
2022-07-26T03:22:08.853Z,67.16
2022-07-26T03:24:35.279Z,67.20
2022-07-26T03:27:01.574Z,67.26
2022-07-26T03:29:27.892Z,67.46
2022-07-26T03:31:54.196Z,66.61
2022-07-26T03:34:20.496Z,67.25
2022-07-26T03:36:46.810Z,66.65
2022-07-26T03:39:13.106Z,65.76
2022-07-26T03:41:39.418Z,65.06
2022-07-26T03:44:06.049Z,65.04
2022-07-26T03:46:32.571Z,64.95
2022-07-26T03:48:58.988Z,64.91
2022-07-26T03:51:25.318Z,64.37
2022-07-26T03:53:51.683Z,63.89
2022-07-26T03:56:33.329Z,63.76
2022-07-26T03:58:59.747Z,63.30
2022-07-26T04:01:26.092Z,63.47
2022-07-26T04:03:52.493Z,63.32
2022-07-26T04:06:18.797Z,64.64
2022-07-26T04:08:49.520Z,63.66
2022-07-26T04:11:15.805Z,63.39
2022-07-26T04:13:42.109Z,63.59
2022-07-26T04:16:08.407Z,63.32
2022-07-26T04:18:34.758Z,62.99
2022-07-26T04:21:01.062Z,63.15
2022-07-26T04:23:27.391Z,62.74
2022-07-26T04:25:53.731Z,63.23
2022-07-26T04:28:20.039Z,63.07
2022-07-26T04:30:46.384Z,63.13
2022-07-26T04:33:12.738Z,62.27
2022-07-26T04:35:39.058Z,62.68
2022-07-26T04:38:05.369Z,64.04
2022-07-26T04:40:34.542Z,63.90
2022-07-26T04:43:06.938Z,64.27
2022-07-26T04:45:36.373Z,63.02
2022-07-26T04:48:02.878Z,63.56
2022-07-26T04:50:29.182Z,64.19
2022-07-26T04:52:55.507Z,63.64
2022-07-26T04:55:21.850Z,63.04
2022-07-26T04:57:48.152Z,63.29
2022-07-26T05:00:21.995Z,62.41
2022-07-26T05:02:49.597Z,62.58
2022-07-26T05:05:15.943Z,62.35
2022-07-26T05:07:42.229Z,62.33
2022-07-26T05:10:08.524Z,62.30
2022-07-26T05:12:34.836Z,62.21
2022-07-26T05:15:01.149Z,62.63
2022-07-26T05:17:30.874Z,63.39
2022-07-26T05:20:01.312Z,64.96
2022-07-26T05:22:29.384Z,64.71
2022-07-26T05:24:55.697Z,64.16
2022-07-26T05:27:22.044Z,63.62
2022-07-26T05:29:48.370Z,62.71
2022-07-26T05:32:14.669Z,62.79
2022-07-26T05:34:40.955Z,63.39
2022-07-26T05:37:07.236Z,63.53
2022-07-26T05:39:33.537Z,63.69
2022-07-26T05:42:14.913Z,63.44
2022-07-26T05:44:42.660Z,63.05
2022-07-26T05:47:09.187Z,64.62
2022-07-26T05:49:40.523Z,63.30
2022-07-26T05:52:07.134Z,62.42
2022-07-26T05:54:33.448Z,62.78
2022-07-26T05:56:59.752Z,62.55
2022-07-26T05:59:26.104Z,61.99
2022-07-26T06:01:56.166Z,63.73
2022-07-26T06:04:23.149Z,61.94
2022-07-26T06:06:52.830Z,63.25
2022-07-26T06:09:19.469Z,62.44
2022-07-26T06:11:46.323Z,62.14
2022-07-26T06:14:12.861Z,61.03
2022-07-26T06:16:39.488Z,61.40
2022-07-26T06:19:06.589Z,60.62
2022-07-26T06:21:32.866Z,59.79
2022-07-26T06:23:59.169Z,59.62
2022-07-26T06:26:25.454Z,58.20
2022-07-26T06:28:51.749Z,58.62
2022-07-26T06:31:18.088Z,57.27
2022-07-26T06:33:44.395Z,57.16
2022-07-26T06:36:10.685Z,56.96
2022-07-26T06:38:36.986Z,55.39
2022-07-26T06:41:03.276Z,54.80
2022-07-26T06:43:29.589Z,54.53
2022-07-26T06:45:55.948Z,53.69
2022-07-26T06:48:22.307Z,53.21
2022-07-26T06:50:49.161Z,53.67
2022-07-26T06:53:15.469Z,53.68
2022-07-26T06:55:41.770Z,53.85
2022-07-26T06:58:09.009Z,52.56
2022-07-26T07:00:35.311Z,52.47
2022-07-26T07:03:01.614Z,51.41
2022-07-26T07:05:27.940Z,50.55
2022-07-26T07:07:57.552Z,49.63
2022-07-26T07:10:24.680Z,49.54
2022-07-26T07:12:51.203Z,50.05
2022-07-26T07:15:17.501Z,50.05
2022-07-26T07:17:43.973Z,49.40
2022-07-26T07:20:10.305Z,50.47
2022-07-26T07:22:36.605Z,49.21
2022-07-26T07:25:03.130Z,48.68
2022-07-26T07:27:32.486Z,48.47
2022-07-26T07:29:59.653Z,47.44
2022-07-26T07:32:26.038Z,47.78
2022-07-26T07:34:52.716Z,46.77
2022-07-26T07:37:20.105Z,47.63
2022-07-26T07:39:48.766Z,46.96
2022-07-26T07:42:16.841Z,46.87
2022-07-26T07:44:43.434Z,46.44
2022-07-26T07:47:09.814Z,47.31
2022-07-26T07:49:36.139Z,46.62
2022-07-26T07:52:02.440Z,45.15
2022-07-26T07:54:29.193Z,45.50
2022-07-26T07:56:56.341Z,43.47
2022-07-26T07:59:22.927Z,44.54
2022-07-26T08:01:49.283Z,44.80
2022-07-26T08:04:15.741Z,43.87
2022-07-26T08:06:42.087Z,44.79
2022-07-26T08:09:16.656Z,45.63
2022-07-26T08:11:42.950Z,45.13
2022-07-26T08:14:09.285Z,44.60
2022-07-26T08:16:35.807Z,44.07
2022-07-26T08:19:02.140Z,44.10
2022-07-26T08:21:29.271Z,44.05
2022-07-26T08:23:55.657Z,43.60
2022-07-26T08:26:21.969Z,43.81
2022-07-26T08:28:48.733Z,43.99
2022-07-26T08:31:24.855Z,44.86
2022-07-26T08:33:51.200Z,44.20
2022-07-26T08:36:17.502Z,45.88
2022-07-26T08:38:44.135Z,44.60
2022-07-26T08:41:10.436Z,45.75
2022-07-26T08:43:51.212Z,45.72
2022-07-26T08:46:24.459Z,46.02
2022-07-26T08:48:52.093Z,46.17
2022-07-26T08:51:18.444Z,46.16
2022-07-26T08:53:44.735Z,46.04
2022-07-26T08:56:11.061Z,45.67
2022-07-26T08:58:37.410Z,46.72
2022-07-26T09:01:03.773Z,45.84
2022-07-26T09:03:33.318Z,46.45
2022-07-26T09:06:00.633Z,45.80
2022-07-26T09:08:26.967Z,45.15
2022-07-26T09:10:53.263Z,45.08
2022-07-26T09:13:20.225Z,45.47
2022-07-26T09:15:46.576Z,44.86
2022-07-26T09:18:12.945Z,45.48
2022-07-26T09:20:39.283Z,44.25
2022-07-26T09:23:07.500Z,44.43
2022-07-26T09:25:33.778Z,43.93
2022-07-26T09:28:00.357Z,42.95
2022-07-26T09:30:26.660Z,42.66
2022-07-26T09:32:55.549Z,42.45
2022-07-26T09:35:49.683Z,41.38
2022-07-26T09:38:11.347Z,41.29
2022-07-26T09:40:37.820Z,41.14
2022-07-26T09:43:04.129Z,40.97
2022-07-26T09:45:30.459Z,41.49
2022-07-26T09:47:56.758Z,41.92
2022-07-26T09:50:23.130Z,41.46
2022-07-26T09:52:49.488Z,41.52
2022-07-26T09:55:18.481Z,41.21
2022-07-26T09:57:44.767Z,40.97
2022-07-26T10:00:12.339Z,38.95
2022-07-26T10:02:38.611Z,38.98
2022-07-26T10:05:04.958Z,38.05
2022-07-26T10:07:31.257Z,38.76
2022-07-26T10:09:57.597Z,39.89
2022-07-26T10:12:27.224Z,37.95
2022-07-26T10:14:57.212Z,37.17
2022-07-26T10:17:28.874Z,36.92
2022-07-26T10:19:55.616Z,36.56
2022-07-26T10:22:22.289Z,37.52
2022-07-26T10:24:48.587Z,37.05
2022-07-26T10:27:14.930Z,36.46
2022-07-26T10:29:41.235Z,35.72
2022-07-26T10:32:07.515Z,34.82
2022-07-26T10:34:33.829Z,35.80
2022-07-26T10:37:00.148Z,36.24
2022-07-26T10:39:26.467Z,38.23
2022-07-26T10:41:52.772Z,38.30
2022-07-26T10:44:19.086Z,37.34
2022-07-26T10:46:45.456Z,36.66
2022-07-26T10:49:14.500Z,35.47
2022-07-26T10:51:40.841Z,35.91
2022-07-26T10:54:07.237Z,35.14
2022-07-26T10:56:34.313Z,36.10
2022-07-26T10:59:00.738Z,36.33
2022-07-26T11:01:27.065Z,36.52
2022-07-26T11:03:53.377Z,35.25
2022-07-26T11:06:19.678Z,35.17
2022-07-26T11:08:48.152Z,35.41
2022-07-26T11:11:14.809Z,35.02
2022-07-26T11:13:41.131Z,34.80
2022-07-26T11:16:07.501Z,34.86
2022-07-26T11:18:35.351Z,34.72
2022-07-26T11:21:01.648Z,34.06
2022-07-26T11:23:27.989Z,33.58
2022-07-26T11:25:56.997Z,33.62
2022-07-26T11:28:26.604Z,33.85
2022-07-26T11:30:52.977Z,33.48
2022-07-26T11:33:19.854Z,35.03
2022-07-26T11:35:46.165Z,34.23
2022-07-26T11:38:12.677Z,34.77
2022-07-26T11:40:38.985Z,35.43
2022-07-26T11:43:05.285Z,36.33
2022-07-26T11:45:31.592Z,35.80
2022-07-26T11:47:58.240Z,36.11
2022-07-26T11:50:24.576Z,34.98
2022-07-26T11:52:51.779Z,34.72
2022-07-26T11:55:18.088Z,33.84
2022-07-26T11:57:44.493Z,34.55
2022-07-26T12:00:10.814Z,34.48
2022-07-26T12:02:37.106Z,35.18
2022-07-26T12:05:03.499Z,35.30
2022-07-26T12:07:29.905Z,34.59
2022-07-26T12:09:58.461Z,35.38
2022-07-26T12:12:27.451Z,34.90
2022-07-26T12:14:54.020Z,33.45
2022-07-26T12:17:20.815Z,33.46
2022-07-26T12:19:47.040Z,33.63
2022-07-26T12:22:13.482Z,34.23
2022-07-26T12:24:39.885Z,34.89
2022-07-26T12:27:06.298Z,35.10
2022-07-26T12:29:36.276Z,35.46
2022-07-26T12:32:02.869Z,34.92
2022-07-26T12:34:29.160Z,33.20
2022-07-26T12:36:55.490Z,33.49
2022-07-26T12:39:21.827Z,32.27
2022-07-26T12:41:50.432Z,31.93
2022-07-26T12:44:17.145Z,31.36
2022-07-26T12:46:47.249Z,31.32
2022-07-26T12:49:13.710Z,31.52
2022-07-26T12:51:40.159Z,31.60
2022-07-26T12:54:06.524Z,30.10
2022-07-26T12:56:33.830Z,29.49
2022-07-26T12:59:03.391Z,29.15
2022-07-26T13:01:29.808Z,30.83
2022-07-26T13:03:56.212Z,30.14
2022-07-26T13:06:22.528Z,29.64
2022-07-26T13:08:48.966Z,30.25
2022-07-26T13:11:15.278Z,30.16
2022-07-26T13:13:41.835Z,29.79
2022-07-26T13:16:11.780Z,31.10
2022-07-26T13:18:38.684Z,31.66
2022-07-26T13:21:05.220Z,32.04
2022-07-26T13:23:32.085Z,33.33
2022-07-26T13:26:01.407Z,33.81
2022-07-26T13:28:29.757Z,33.68
2022-07-26T13:30:56.105Z,33.91
2022-07-26T13:33:22.682Z,34.25
2022-07-26T13:35:50.131Z,33.96
2022-07-26T13:38:19.148Z,34.59
2022-07-26T13:40:45.465Z,34.76
2022-07-26T13:43:11.754Z,34.55
2022-07-26T13:45:38.135Z,34.13
2022-07-26T13:48:04.526Z,34.21
2022-07-26T13:50:30.845Z,35.11
2022-07-26T13:52:57.277Z,35.37
2022-07-26T13:55:23.916Z,34.77
2022-07-26T13:57:56.950Z,36.24
2022-07-26T14:00:24.135Z,36.52
2022-07-26T14:02:50.528Z,35.52
2022-07-26T14:05:17.231Z,35.91
2022-07-26T14:07:43.592Z,35.65
2022-07-26T14:10:09.949Z,35.47
2022-07-26T14:12:37.974Z,36.70
2022-07-26T14:15:09.328Z,36.24
2022-07-26T14:17:38.492Z,35.94
2022-07-26T14:20:04.840Z,36.03
2022-07-26T14:22:31.168Z,35.68
2022-07-26T14:24:57.467Z,35.90
2022-07-26T14:27:23.767Z,34.80
2022-07-26T14:29:50.077Z,33.98
2022-07-26T14:32:21.365Z,33.75
2022-07-26T14:34:48.253Z,33.59
2022-07-26T14:37:43.230Z,33.91
2022-07-26T14:40:00.834Z,33.93
2022-07-26T14:42:27.140Z,34.13
2022-07-26T14:44:53.440Z,33.98
2022-07-26T14:47:19.738Z,34.95
2022-07-26T14:49:46.119Z,35.20
2022-07-26T14:52:12.474Z,34.91
2022-07-26T14:54:38.764Z,35.18
2022-07-26T14:57:05.064Z,37.44
2022-07-26T14:59:31.670Z,38.18
2022-07-26T15:02:00.375Z,37.16
2022-07-26T15:04:30.169Z,36.91
2022-07-26T15:06:56.459Z,36.79
2022-07-26T15:09:22.760Z,36.61
2022-07-26T15:11:49.732Z,37.09
2022-07-26T15:14:16.063Z,36.81
2022-07-26T15:16:42.478Z,36.57
2022-07-26T15:19:08.926Z,37.36
2022-07-26T15:21:35.211Z,37.17
2022-07-26T15:24:01.486Z,37.66
2022-07-26T15:26:27.845Z,37.25
2022-07-26T15:28:54.151Z,37.44
2022-07-26T15:31:20.476Z,37.25
2022-07-26T15:33:46.793Z,37.15
2022-07-26T15:36:13.094Z,37.38
2022-07-26T15:38:44.476Z,37.03
2022-07-26T15:41:10.769Z,37.77
2022-07-26T15:43:43.878Z,37.61
2022-07-26T15:46:14.927Z,38.24
2022-07-26T15:48:42.284Z,39.34
2022-07-26T15:51:08.620Z,41.05
2022-07-26T15:53:35.545Z,41.10
2022-07-26T15:56:02.787Z,41.90
2022-07-26T15:58:29.902Z,41.88
2022-07-26T16:00:56.407Z,41.98
2022-07-26T16:03:22.726Z,43.94
2022-07-26T16:05:49.053Z,43.69
2022-07-26T16:08:15.384Z,43.28
2022-07-26T16:10:41.713Z,43.53
2022-07-26T16:13:08.026Z,43.43
2022-07-26T16:15:34.338Z,44.82
2022-07-26T16:18:05.851Z,46.04
2022-07-26T16:20:32.698Z,46.21
2022-07-26T16:22:59.080Z,46.66
2022-07-26T16:25:25.386Z,48.44
2022-07-26T16:27:53.217Z,47.78
2022-07-26T16:30:19.538Z,46.82
2022-07-26T16:32:45.827Z,48.45
2022-07-26T16:35:12.134Z,46.47
2022-07-26T16:37:38.418Z,47.54
2022-07-26T16:40:04.729Z,47.72
2022-07-26T16:42:31.062Z,47.75
2022-07-26T16:44:57.359Z,48.39
2022-07-26T16:47:23.653Z,47.69
2022-07-26T16:49:50.041Z,46.94
2022-07-26T16:52:16.490Z,48.97
2022-07-26T16:54:42.813Z,48.26
2022-07-26T16:57:09.102Z,48.94
2022-07-26T16:59:35.409Z,47.88
2022-07-26T17:02:03.029Z,47.74
2022-07-26T17:04:29.583Z,49.51
2022-07-26T17:07:22.381Z,47.75
2022-07-26T17:09:42.283Z,47.33
2022-07-26T17:12:08.584Z,46.57
2022-07-26T17:14:34.873Z,46.74
2022-07-26T17:17:01.174Z,47.50
2022-07-26T17:19:27.719Z,47.19
2022-07-26T17:21:54.070Z,49.14
2022-07-26T17:24:20.370Z,48.18
2022-07-26T17:26:47.137Z,47.96
2022-07-26T17:29:13.799Z,48.40
2022-07-26T17:31:40.235Z,48.22
2022-07-26T17:34:06.754Z,47.63
2022-07-26T17:36:33.061Z,48.86
2022-07-26T17:39:02.669Z,48.07
2022-07-26T17:41:32.634Z,48.87
2022-07-26T17:43:59.519Z,47.96
2022-07-26T17:46:25.911Z,47.29
2022-07-26T17:48:52.309Z,46.58
2022-07-26T17:51:18.936Z,47.93
2022-07-26T17:53:49.779Z,47.19
2022-07-26T17:56:19.361Z,46.59
2022-07-26T17:58:45.662Z,47.64
2022-07-26T18:01:12.087Z,47.46
2022-07-26T18:03:38.428Z,47.69
2022-07-26T18:06:06.462Z,47.65
2022-07-26T18:08:32.961Z,47.28
2022-07-26T18:10:59.281Z,47.17
2022-07-26T18:13:26.269Z,47.82
2022-07-26T18:15:52.643Z,48.40
2022-07-26T18:18:18.975Z,47.79
2022-07-26T18:20:45.285Z,47.84
2022-07-26T18:23:11.607Z,48.05
2022-07-26T18:25:37.917Z,48.16
2022-07-26T18:28:07.033Z,48.35
2022-07-26T18:30:33.662Z,48.20
2022-07-26T18:33:00.124Z,48.73
2022-07-26T18:35:26.462Z,49.25
2022-07-26T18:37:52.982Z,48.76
2022-07-26T18:40:19.599Z,48.71
2022-07-26T18:42:45.938Z,48.41
2022-07-26T18:45:12.247Z,48.11
2022-07-26T18:47:38.536Z,47.81
2022-07-26T18:50:04.827Z,47.75
2022-07-26T18:52:32.675Z,48.12
2022-07-26T18:54:59.422Z,48.11
2022-07-26T18:57:25.718Z,48.57
2022-07-26T18:59:52.037Z,49.00
2022-07-26T19:02:18.345Z,49.29
2022-07-26T19:04:44.645Z,49.39
2022-07-26T19:07:10.944Z,49.52
2022-07-26T19:09:37.268Z,49.73
2022-07-26T19:12:03.580Z,50.22
2022-07-26T19:14:29.924Z,51.48
2022-07-26T19:16:56.224Z,51.04
2022-07-26T19:19:22.514Z,51.58
2022-07-26T19:21:49.281Z,51.11
2022-07-26T19:24:15.857Z,50.88
2022-07-26T19:26:42.176Z,50.35
2022-07-26T19:29:08.709Z,51.30
2022-07-26T19:31:35.227Z,52.62
2022-07-26T19:34:03.080Z,51.96
2022-07-26T19:36:29.394Z,52.12
2022-07-26T19:38:57.382Z,51.66
2022-07-26T19:41:23.717Z,51.98
2022-07-26T19:43:50.010Z,52.98
2022-07-26T19:46:16.371Z,52.37
2022-07-26T19:48:42.778Z,51.76
2022-07-26T19:51:09.196Z,52.35
2022-07-26T19:53:35.503Z,51.85
2022-07-26T19:56:01.804Z,51.65
2022-07-26T19:58:29.929Z,52.30
2022-07-26T20:00:56.272Z,51.96
2022-07-26T20:03:22.572Z,52.31
2022-07-26T20:05:48.870Z,52.26
2022-07-26T20:08:15.198Z,52.61
2022-07-26T20:10:41.494Z,52.94
2022-07-26T20:13:07.971Z,52.63
2022-07-26T20:15:34.302Z,52.73
2022-07-26T20:18:00.595Z,52.62
2022-07-26T20:20:26.917Z,52.72
2022-07-26T20:22:53.201Z,52.51
2022-07-26T20:25:21.590Z,52.90
2022-07-26T20:27:49.752Z,53.35
2022-07-26T20:30:16.120Z,53.76
2022-07-26T20:32:42.419Z,53.42
2022-07-26T20:35:08.726Z,53.84
2022-07-26T20:37:35.061Z,53.18
2022-07-26T20:40:01.391Z,53.72
2022-07-26T20:42:27.701Z,54.00
2022-07-26T20:44:54.121Z,54.36
2022-07-26T20:47:20.686Z,53.84
2022-07-26T20:49:47.008Z,54.29
2022-07-26T20:52:13.293Z,54.03
2022-07-26T20:54:39.765Z,53.68
2022-07-26T20:57:06.051Z,53.51
2022-07-26T20:59:32.456Z,54.06
2022-07-26T21:01:58.806Z,53.85
2022-07-26T21:04:25.187Z,54.55
2022-07-26T21:06:51.507Z,54.53
2022-07-26T21:09:18.842Z,54.17
2022-07-26T21:11:45.125Z,54.12
2022-07-26T21:14:11.638Z,53.94
2022-07-26T21:16:38.050Z,54.12
2022-07-26T21:19:04.414Z,54.91
2022-07-26T21:21:30.776Z,55.48
2022-07-26T21:23:57.078Z,54.84
2022-07-26T21:26:23.405Z,54.71
2022-07-26T21:28:49.691Z,55.04
2022-07-26T21:31:15.987Z,54.69
2022-07-26T21:33:44.546Z,54.98
2022-07-26T21:36:10.887Z,54.42
2022-07-26T21:38:37.409Z,54.32
2022-07-26T21:41:03.692Z,54.42
2022-07-26T21:43:30.058Z,54.50
2022-07-26T21:45:56.467Z,53.98
2022-07-26T21:48:23.089Z,53.81
2022-07-26T21:50:49.392Z,54.62
2022-07-26T21:53:15.700Z,54.24
2022-07-26T21:55:41.998Z,54.30
2022-07-26T21:58:08.333Z,54.62
2022-07-26T22:00:36.732Z,54.69
2022-07-26T22:03:03.020Z,54.65
2022-07-26T22:05:35.054Z,54.98
2022-07-26T22:08:01.372Z,55.39
2022-07-26T22:10:27.676Z,55.50
2022-07-26T22:12:53.979Z,55.43
2022-07-26T22:15:20.280Z,55.69
2022-07-26T22:17:46.570Z,55.07
2022-07-26T22:20:12.912Z,55.28
2022-07-26T22:22:39.246Z,55.29
2022-07-26T22:25:05.572Z,55.52
2022-07-26T22:27:31.874Z,55.46
2022-07-26T22:29:58.167Z,54.98
2022-07-26T22:32:24.472Z,55.31
2022-07-26T22:34:50.776Z,55.28
2022-07-26T22:37:17.101Z,55.53
2022-07-26T22:39:43.438Z,55.46
2022-07-26T22:42:16.935Z,56.13
2022-07-26T22:44:43.296Z,56.12
2022-07-26T22:47:09.600Z,55.55
2022-07-26T22:49:36.013Z,55.58
2022-07-26T22:52:02.419Z,56.23
2022-07-26T22:54:28.699Z,55.99
2022-07-26T22:56:55.010Z,55.75
2022-07-26T22:59:22.507Z,56.40
2022-07-26T23:01:48.836Z,56.16
2022-07-26T23:04:15.220Z,56.36
2022-07-26T23:06:42.528Z,56.05
2022-07-26T23:09:11.137Z,56.31
2022-07-26T23:11:38.062Z,56.21
2022-07-26T23:14:04.424Z,56.72
2022-07-26T23:16:30.776Z,56.94
2022-07-26T23:18:57.120Z,56.95
2022-07-26T23:21:23.436Z,56.63
2022-07-26T23:23:49.733Z,56.36
2022-07-26T23:26:16.051Z,56.70
2022-07-26T23:28:42.573Z,56.66
2022-07-26T23:31:10.387Z,56.72
2022-07-26T23:33:52.204Z,56.83
2022-07-26T23:36:20.644Z,56.45
2022-07-26T23:38:47.039Z,57.10
2022-07-26T23:41:13.477Z,57.71
2022-07-26T23:43:39.788Z,58.18
2022-07-26T23:46:06.070Z,58.11
2022-07-26T23:48:32.428Z,58.39
2022-07-26T23:50:58.784Z,57.81
2022-07-26T23:53:26.739Z,57.86
2022-07-26T23:55:53.557Z,58.05
2022-07-26T23:58:19.847Z,58.29
